createdAt,value
2022-11-20T00:01:28.834Z,78.72
2022-11-20T00:04:01.526Z,79.63
2022-11-20T00:06:34.578Z,79.97
2022-11-20T00:09:06.311Z,79.83
2022-11-20T00:11:36.236Z,79.07
2022-11-20T00:14:06.154Z,79.04
2022-11-20T00:16:38.634Z,78.62
2022-11-20T00:19:09.485Z,78.43
2022-11-20T00:21:40.321Z,78.07
2022-11-20T00:24:14.420Z,78.07
2022-11-20T00:26:44.268Z,78.09
2022-11-20T00:29:15.345Z,77.68
2022-11-20T00:31:48.837Z,77.28
2022-11-20T00:34:27.055Z,77.25
2022-11-20T00:36:56.957Z,77.30
2022-11-20T00:39:30.310Z,77.67
2022-11-20T00:42:02.184Z,77.70
2022-11-20T00:44:35.398Z,77.10
2022-11-20T00:47:10.989Z,77.00
2022-11-20T00:49:42.781Z,77.64
2022-11-20T00:52:19.268Z,77.55
2022-11-20T00:54:52.381Z,77.78
2022-11-20T00:57:23.158Z,78.21
2022-11-20T00:59:53.003Z,77.69
2022-11-20T01:02:25.389Z,77.25
2022-11-20T01:04:55.198Z,77.50
2022-11-20T01:07:25.050Z,77.54
2022-11-20T01:09:55.923Z,78.55
2022-11-20T01:12:29.394Z,78.56
2022-11-20T01:14:59.267Z,78.10
2022-11-20T01:17:31.631Z,77.71
2022-11-20T01:20:01.472Z,78.55
2022-11-20T01:22:32.365Z,78.52
2022-11-20T01:25:02.154Z,78.03
2022-11-20T01:27:32.080Z,77.73
2022-11-20T01:30:03.940Z,78.16
2022-11-20T01:32:36.364Z,77.88
2022-11-20T01:35:10.658Z,77.77
2022-11-20T01:37:44.410Z,77.22
2022-11-20T01:40:15.584Z,77.15
2022-11-20T01:43:08.038Z,77.70
2022-11-20T01:46:07.140Z,77.39
2022-11-20T01:48:50.799Z,77.89
2022-11-20T01:51:29.348Z,78.32
2022-11-20T01:54:02.958Z,78.65
2022-11-20T01:56:35.381Z,78.30
2022-11-20T01:59:09.614Z,78.06
2022-11-20T02:01:43.509Z,78.37
2022-11-20T02:04:18.129Z,77.73
2022-11-20T02:06:51.998Z,77.10
2022-11-20T02:09:25.320Z,77.53
2022-11-20T02:11:57.695Z,78.12
2022-11-20T02:14:25.911Z,77.70
2022-11-20T02:16:58.995Z,77.15
2022-11-20T02:19:34.444Z,78.09
2022-11-20T02:22:09.375Z,78.20
2022-11-20T02:24:45.382Z,77.70
2022-11-20T02:27:20.790Z,78.05
2022-11-20T02:29:55.642Z,78.74
2022-11-20T02:32:31.550Z,78.58
2022-11-20T02:35:10.472Z,78.57
2022-11-20T02:37:43.855Z,79.27
2022-11-20T02:40:17.025Z,79.08
2022-11-20T02:42:51.383Z,80.43
2022-11-20T02:45:21.394Z,80.53
2022-11-20T02:47:51.262Z,79.90
2022-11-20T02:50:22.054Z,80.40
2022-11-20T02:52:51.834Z,80.95
2022-11-20T02:55:24.294Z,80.78
2022-11-20T02:57:57.403Z,80.60
2022-11-20T03:00:27.206Z,80.73
2022-11-20T03:02:57.041Z,80.99
2022-11-20T03:05:26.855Z,80.62
2022-11-20T03:07:56.641Z,80.10
2022-11-20T03:10:29.051Z,79.30
2022-11-20T03:12:59.524Z,79.01
2022-11-20T03:15:29.297Z,78.64
2022-11-20T03:17:59.353Z,78.24
2022-11-20T03:20:29.114Z,78.36
2022-11-20T03:22:58.944Z,78.26
2022-11-20T03:25:31.370Z,78.58
2022-11-20T03:28:01.146Z,77.94
2022-11-20T03:30:31.141Z,77.68
2022-11-20T03:33:01.205Z,77.67
2022-11-20T03:35:30.964Z,77.53
2022-11-20T03:38:01.506Z,77.25
2022-11-20T03:40:33.836Z,77.48
2022-11-20T03:43:03.650Z,77.58
2022-11-20T03:45:33.425Z,77.83
2022-11-20T03:48:03.170Z,77.54
2022-11-20T03:50:32.918Z,78.10
2022-11-20T03:53:02.697Z,77.83
2022-11-20T03:55:35.050Z,77.35
2022-11-20T03:58:04.822Z,77.07
2022-11-20T04:00:34.609Z,77.50
2022-11-20T04:03:04.638Z,77.62
2022-11-20T04:05:34.423Z,77.56
2022-11-20T04:08:04.323Z,77.65
2022-11-20T04:10:39.102Z,77.27
2022-11-20T04:13:08.859Z,78.26
2022-11-20T04:15:38.752Z,78.96
2022-11-20T04:18:08.753Z,79.00
2022-11-20T04:20:39.059Z,78.68
2022-11-20T04:23:08.812Z,78.15
2022-11-20T04:25:41.157Z,79.32
2022-11-20T04:28:10.946Z,79.50
2022-11-20T04:30:40.787Z,78.89
2022-11-20T04:33:10.560Z,78.81
2022-11-20T04:35:41.155Z,79.14
2022-11-20T04:38:11.098Z,79.18
2022-11-20T04:40:43.422Z,79.95
2022-11-20T04:43:13.191Z,80.48
2022-11-20T04:45:42.929Z,80.97
2022-11-20T04:48:12.731Z,80.99
2022-11-20T04:50:44.018Z,81.15
2022-11-20T04:53:13.805Z,81.66
2022-11-20T04:55:46.278Z,81.24
2022-11-20T04:58:16.426Z,80.97
2022-11-20T05:00:46.226Z,81.48
2022-11-20T05:03:16.018Z,81.99
2022-11-20T05:05:45.780Z,81.84
2022-11-20T05:08:15.523Z,82.19
2022-11-20T05:10:47.863Z,81.68
2022-11-20T05:13:17.633Z,81.65
2022-11-20T05:15:47.514Z,81.54
2022-11-20T05:18:17.394Z,81.68
2022-11-20T05:20:47.195Z,81.45
2022-11-20T05:23:16.960Z,82.39
2022-11-20T05:25:54.605Z,82.33
2022-11-20T05:28:27.757Z,82.90
2022-11-20T05:30:57.690Z,82.83
2022-11-20T05:33:27.417Z,83.09
2022-11-20T05:36:01.494Z,82.42
2022-11-20T05:38:31.246Z,82.87
2022-11-20T05:41:10.600Z,82.25
2022-11-20T05:43:41.684Z,81.92
2022-11-20T05:46:13.565Z,81.80
2022-11-20T05:48:45.095Z,81.92
2022-11-20T05:51:17.157Z,82.38
2022-11-20T05:53:48.752Z,82.04
2022-11-20T05:56:23.110Z,82.21
2022-11-20T05:58:53.612Z,82.12
2022-11-20T06:01:25.498Z,82.06
2022-11-20T06:03:56.934Z,82.63
2022-11-20T06:06:27.006Z,82.63
2022-11-20T06:08:56.804Z,82.76
2022-11-20T06:11:29.284Z,82.43
2022-11-20T06:13:59.104Z,82.77
2022-11-20T06:16:29.274Z,82.96
2022-11-20T06:18:59.086Z,82.98
2022-11-20T06:21:28.915Z,83.95
2022-11-20T06:23:58.695Z,83.95
2022-11-20T06:26:31.323Z,84.10
2022-11-20T06:29:01.179Z,84.91
2022-11-20T06:31:33.780Z,84.39
2022-11-20T06:34:03.546Z,84.60
2022-11-20T06:36:33.305Z,84.81
2022-11-20T06:39:03.148Z,84.83
2022-11-20T06:41:35.479Z,84.58
2022-11-20T06:44:07.043Z,84.48
2022-11-20T06:46:36.773Z,84.13
2022-11-20T06:49:06.946Z,84.16
2022-11-20T06:51:36.682Z,84.30
2022-11-20T06:54:06.493Z,85.25
2022-11-20T06:56:38.846Z,86.27
2022-11-20T06:59:09.286Z,86.08
2022-11-20T07:01:39.062Z,86.21
2022-11-20T07:04:08.965Z,87.53
2022-11-20T07:06:38.725Z,88.82
2022-11-20T07:09:12.572Z,88.90
2022-11-20T07:11:45.387Z,89.47
2022-11-20T07:14:15.198Z,89.48
2022-11-20T07:16:44.954Z,90.05
2022-11-20T07:19:14.697Z,89.59
2022-11-20T07:21:51.095Z,90.12
2022-11-20T07:24:20.890Z,91.44
2022-11-20T07:26:57.186Z,90.97
2022-11-20T07:29:30.345Z,89.80
2022-11-20T07:32:00.446Z,88.59
2022-11-20T07:34:30.265Z,88.66
2022-11-20T07:37:07.552Z,89.02
2022-11-20T07:39:43.573Z,87.87
2022-11-20T07:42:21.773Z,86.67
2022-11-20T07:44:54.435Z,86.98
2022-11-20T07:47:24.219Z,86.69
2022-11-20T07:49:54.137Z,86.04
2022-11-20T07:52:27.494Z,85.48
2022-11-20T07:55:04.181Z,85.20
2022-11-20T07:57:37.670Z,84.56
2022-11-20T08:00:10.330Z,84.72
2022-11-20T08:02:43.646Z,85.19
2022-11-20T08:05:13.661Z,85.11
2022-11-20T08:07:44.540Z,85.05
2022-11-20T08:10:16.950Z,84.78
2022-11-20T08:13:06.305Z,85.09
2022-11-20T08:15:37.717Z,86.71
2022-11-20T08:21:01.133Z,86.21
2022-11-20T08:23:31.262Z,85.24
2022-11-20T08:26:01.193Z,85.04
2022-11-20T08:28:33.592Z,85.45
2022-11-20T08:31:06.297Z,85.45
2022-11-20T08:33:36.250Z,85.23
2022-11-20T08:36:08.712Z,84.70
2022-11-20T08:38:38.535Z,86.16
2022-11-20T08:41:21.797Z,85.98
2022-11-20T08:43:57.167Z,86.83
2022-11-20T08:46:28.093Z,86.67
2022-11-20T08:48:58.937Z,85.83
2022-11-20T08:51:28.860Z,85.22
2022-11-20T08:53:58.669Z,84.78
2022-11-20T08:56:30.577Z,84.14
2022-11-20T09:01:53.909Z,84.95
2022-11-20T09:04:27.411Z,84.05
2022-11-20T09:07:04.319Z,82.80
2022-11-20T09:09:37.424Z,81.82
2022-11-20T09:12:08.083Z,82.39
2022-11-20T09:14:42.480Z,84.04
2022-11-20T09:17:14.528Z,83.06
2022-11-20T09:19:44.600Z,82.17
2022-11-20T09:22:14.544Z,81.65
2022-11-20T09:24:45.529Z,81.20
2022-11-20T09:27:15.531Z,81.74
2022-11-20T09:29:51.042Z,82.57
2022-11-20T09:32:20.853Z,83.34
2022-11-20T09:34:50.744Z,83.19
2022-11-20T09:37:24.516Z,83.57
2022-11-20T09:39:54.377Z,83.08
2022-11-20T09:42:35.231Z,80.98
2022-11-20T09:45:26.833Z,78.63
2022-11-20T09:48:10.184Z,79.17
2022-11-20T09:50:48.754Z,79.32
2022-11-20T09:53:28.875Z,79.55
2022-11-20T09:55:59.353Z,78.35
2022-11-20T09:58:35.960Z,77.26
2022-11-20T10:01:16.088Z,77.50
2022-11-20T10:03:57.737Z,77.84
2022-11-20T10:06:34.244Z,78.05
2022-11-20T10:09:23.987Z,78.31
2022-11-20T10:12:08.552Z,79.09
2022-11-20T10:14:49.840Z,79.83
2022-11-20T10:17:34.844Z,80.92
2022-11-20T10:20:20.349Z,81.57
2022-11-20T10:23:04.096Z,82.62
2022-11-20T10:25:41.799Z,82.34
2022-11-20T10:28:23.923Z,82.64
2022-11-20T10:31:03.496Z,82.72
2022-11-20T10:33:57.440Z,82.54
2022-11-20T10:36:37.332Z,83.00
2022-11-20T10:39:16.593Z,82.82
2022-11-20T10:41:48.465Z,83.53
2022-11-20T10:44:40.570Z,83.60
2022-11-20T10:47:17.327Z,84.62
2022-11-20T10:49:54.061Z,85.40
2022-11-20T10:52:35.714Z,85.02
2022-11-20T10:55:15.704Z,84.81
2022-11-20T10:57:57.646Z,85.43
2022-11-20T11:00:28.071Z,85.92
2022-11-20T11:03:03.392Z,86.24
2022-11-20T11:05:46.872Z,85.61
2022-11-20T11:08:22.993Z,85.94
2022-11-20T11:11:00.561Z,86.10
2022-11-20T11:13:32.266Z,85.44
2022-11-20T11:16:02.060Z,84.87
2022-11-20T11:18:33.543Z,83.77
2022-11-20T11:21:08.559Z,83.50
2022-11-20T11:23:41.228Z,82.66
2022-11-20T11:26:24.012Z,82.07
2022-11-20T11:28:58.281Z,82.68
2022-11-20T11:31:29.558Z,83.66
2022-11-20T11:34:08.834Z,82.14
2022-11-20T11:36:41.574Z,82.02
2022-11-20T11:39:19.312Z,81.28
2022-11-20T11:41:49.693Z,81.93
2022-11-20T11:44:35.159Z,81.99
2022-11-20T11:47:07.372Z,81.92
2022-11-20T11:49:40.371Z,83.08
2022-11-20T11:52:19.541Z,81.96
2022-11-20T11:54:56.699Z,82.37
2022-11-20T11:57:38.047Z,81.85
2022-11-20T12:00:15.922Z,81.63
2022-11-20T12:03:01.360Z,80.38
2022-11-20T12:05:34.614Z,80.98
2022-11-20T12:08:14.710Z,81.20
2022-11-20T12:10:52.724Z,80.08
2022-11-20T12:13:30.608Z,80.10
2022-11-20T12:16:00.618Z,80.07
2022-11-20T12:18:33.461Z,79.02
2022-11-20T12:21:11.454Z,78.71
2022-11-20T12:24:08.478Z,79.21
2022-11-20T12:26:52.059Z,79.76
2022-11-20T12:29:34.344Z,79.43
2022-11-20T12:32:27.702Z,79.17
2022-11-20T12:35:11.429Z,80.16
2022-11-20T12:37:54.935Z,80.03
2022-11-20T12:40:36.287Z,79.70
2022-11-20T12:43:28.093Z,78.87
2022-11-20T12:46:17.877Z,78.58
2022-11-20T12:49:24.567Z,78.40
2022-11-20T12:52:20.885Z,79.22
2022-11-20T12:55:14.832Z,79.71
2022-11-20T12:57:53.883Z,79.69
2022-11-20T13:00:26.194Z,79.79
2022-11-20T13:03:45.346Z,78.14
2022-11-20T13:06:20.143Z,77.91
2022-11-20T13:08:56.980Z,78.18
2022-11-20T13:11:36.106Z,79.07
2022-11-20T13:14:20.148Z,78.42
2022-11-20T13:17:04.724Z,77.57
2022-11-20T13:19:37.511Z,77.50
2022-11-20T13:22:08.475Z,77.17
2022-11-20T13:24:38.249Z,76.60
2022-11-20T13:27:26.137Z,76.62
2022-11-20T13:30:19.034Z,76.39
2022-11-20T13:32:53.267Z,77.04
2022-11-20T13:35:32.791Z,75.78
2022-11-20T13:38:09.098Z,76.55
2022-11-20T13:40:54.316Z,76.89
2022-11-20T13:43:31.449Z,76.72
2022-11-20T13:46:05.813Z,76.65
2022-11-20T13:48:41.895Z,76.43
2022-11-20T13:51:24.884Z,76.15
2022-11-20T13:54:26.215Z,75.72
2022-11-20T13:57:13.393Z,75.73
2022-11-20T14:00:00.610Z,75.26
2022-11-20T14:02:34.205Z,75.10
2022-11-20T14:05:19.141Z,74.54
2022-11-20T14:07:49.437Z,74.60
2022-11-20T14:10:31.726Z,74.27
2022-11-20T14:13:14.584Z,74.96
2022-11-20T14:15:45.522Z,75.10
2022-11-20T14:18:23.264Z,74.98
2022-11-20T14:20:53.148Z,74.89
2022-11-20T14:23:29.944Z,74.68
2022-11-20T14:26:03.444Z,74.98
2022-11-20T14:28:35.085Z,75.43
2022-11-20T14:31:20.786Z,75.68
2022-11-20T14:33:58.057Z,76.07
2022-11-20T14:36:29.287Z,76.24
2022-11-20T14:38:59.268Z,76.16
2022-11-20T14:41:30.092Z,76.06
2022-11-20T14:44:04.325Z,75.97
2022-11-20T14:46:36.613Z,76.23
2022-11-20T14:49:09.404Z,75.97
2022-11-20T14:51:42.542Z,76.38
2022-11-20T14:54:19.321Z,76.75
2022-11-20T14:56:57.591Z,77.40
2022-11-20T14:59:29.340Z,76.82
2022-11-20T15:02:03.664Z,76.67
2022-11-20T15:04:36.371Z,76.34
2022-11-20T15:07:08.269Z,76.22
2022-11-20T15:09:40.125Z,76.24
2022-11-20T15:12:21.783Z,76.10
2022-11-20T15:14:52.351Z,76.61
2022-11-20T15:17:22.347Z,76.87
2022-11-20T15:19:55.475Z,76.97
2022-11-20T15:22:25.439Z,77.24
2022-11-20T15:24:56.349Z,77.08
2022-11-20T15:27:27.292Z,77.05
2022-11-20T15:29:57.296Z,76.97
2022-11-20T15:32:28.131Z,77.12
2022-11-20T15:35:04.004Z,76.83
2022-11-20T15:37:33.968Z,77.38
2022-11-20T15:40:03.959Z,77.42
2022-11-20T15:42:38.476Z,77.30
2022-11-20T15:45:09.136Z,77.52
2022-11-20T15:47:39.411Z,77.59
2022-11-20T15:50:17.599Z,77.42
2022-11-20T15:52:49.434Z,77.65
2022-11-20T15:55:19.390Z,77.59
2022-11-20T15:57:49.283Z,77.89
2022-11-20T16:00:23.564Z,77.87
2022-11-20T16:02:54.840Z,78.04
2022-11-20T16:05:27.351Z,77.92
2022-11-20T16:07:57.574Z,78.22
2022-11-20T16:10:27.505Z,78.43
2022-11-20T16:13:10.845Z,78.43
2022-11-20T16:15:49.753Z,78.38
2022-11-20T16:18:22.234Z,78.48
2022-11-20T16:20:56.564Z,78.39
2022-11-20T16:23:26.781Z,78.66
2022-11-20T16:25:56.524Z,78.96
2022-11-20T16:28:26.413Z,79.22
2022-11-20T16:30:56.208Z,79.32
2022-11-20T16:33:26.038Z,79.28
2022-11-20T16:35:58.572Z,79.37
2022-11-20T16:38:28.504Z,78.90
2022-11-20T16:41:04.108Z,79.11
2022-11-20T16:43:34.166Z,79.27
2022-11-20T16:46:07.842Z,79.23
2022-11-20T16:48:38.572Z,79.49
2022-11-20T16:51:12.719Z,79.49
2022-11-20T16:53:46.524Z,79.72
2022-11-20T16:56:18.775Z,79.99
2022-11-20T16:58:52.293Z,80.24
2022-11-20T17:01:24.743Z,80.74
2022-11-20T17:03:58.989Z,80.25
2022-11-20T17:06:34.980Z,80.71
2022-11-20T17:09:05.787Z,81.29
2022-11-20T17:11:36.208Z,80.84
2022-11-20T17:14:07.511Z,81.33
2022-11-20T17:16:38.686Z,81.22
2022-11-20T17:19:09.007Z,81.85
2022-11-20T17:21:42.292Z,81.34
2022-11-20T17:24:15.906Z,81.35
2022-11-20T17:26:48.498Z,81.60
2022-11-20T17:29:24.122Z,81.66
2022-11-20T17:31:56.584Z,81.84
2022-11-20T17:34:26.763Z,81.63
2022-11-20T17:36:59.399Z,81.04
2022-11-20T17:39:29.335Z,81.84
2022-11-20T17:42:11.735Z,81.38
2022-11-20T17:44:42.213Z,81.56
2022-11-20T17:47:13.579Z,81.49
2022-11-20T17:49:43.525Z,80.88
2022-11-20T17:52:17.044Z,81.00
2022-11-20T17:54:46.994Z,81.42
2022-11-20T17:57:29.422Z,81.45
2022-11-20T17:59:59.359Z,82.17
2022-11-20T18:02:30.344Z,82.31
2022-11-20T18:05:01.181Z,82.69
2022-11-20T18:07:37.125Z,82.97
2022-11-20T18:10:12.626Z,82.93
2022-11-20T18:12:42.568Z,82.81
2022-11-20T18:15:12.743Z,82.98
2022-11-20T18:17:42.611Z,82.74
2022-11-20T18:20:28.633Z,82.63
2022-11-20T18:23:02.234Z,83.20
2022-11-20T18:25:32.298Z,83.48
2022-11-20T18:28:02.247Z,83.71
2022-11-20T18:30:34.218Z,83.56
2022-11-20T18:33:04.436Z,83.22
2022-11-20T18:35:34.428Z,83.51
2022-11-20T18:38:07.054Z,82.91
2022-11-20T18:40:38.290Z,82.85
2022-11-20T18:43:21.016Z,83.29
2022-11-20T18:45:52.579Z,83.21
2022-11-20T18:48:24.535Z,83.67
2022-11-20T18:50:58.505Z,83.57
2022-11-20T18:53:32.101Z,83.42
2022-11-20T18:56:07.314Z,83.77
2022-11-20T18:58:37.055Z,84.07
2022-11-20T19:01:10.831Z,84.40
2022-11-20T19:03:40.899Z,84.42
2022-11-20T19:06:15.611Z,84.03
2022-11-20T19:08:48.302Z,84.60
2022-11-20T19:11:24.290Z,84.46
2022-11-20T19:13:54.245Z,84.29
2022-11-20T19:16:25.787Z,84.95
2022-11-20T19:18:57.259Z,84.41
2022-11-20T19:21:29.589Z,84.83
2022-11-20T19:24:04.639Z,84.62
2022-11-20T19:26:37.078Z,84.90
2022-11-20T19:29:08.045Z,84.63
2022-11-20T19:31:39.077Z,85.29
2022-11-20T19:34:08.889Z,85.49
2022-11-20T19:36:44.878Z,85.22
2022-11-20T19:39:17.961Z,84.99
2022-11-20T19:41:51.537Z,85.23
2022-11-20T19:44:21.589Z,85.07
2022-11-20T19:46:51.665Z,84.71
2022-11-20T19:49:22.016Z,84.62
2022-11-20T19:51:52.440Z,84.54
2022-11-20T19:54:25.053Z,84.09
2022-11-20T19:56:55.016Z,83.66
2022-11-20T19:59:26.365Z,83.54
2022-11-20T20:01:56.923Z,83.97
2022-11-20T20:04:27.004Z,83.04
2022-11-20T20:06:57.902Z,83.15
2022-11-20T20:09:31.552Z,82.81
2022-11-20T20:12:02.652Z,82.41
2022-11-20T20:14:32.456Z,82.01
2022-11-20T20:17:02.524Z,82.03
2022-11-20T20:19:32.560Z,82.24
2022-11-20T20:22:04.543Z,81.83
2022-11-20T20:24:38.261Z,81.59
2022-11-20T20:27:08.215Z,81.69
2022-11-20T20:29:38.248Z,81.96
2022-11-20T20:32:08.865Z,81.99
2022-11-20T20:34:38.901Z,82.04
2022-11-20T20:37:10.973Z,81.88
2022-11-20T20:39:43.580Z,82.18
2022-11-20T20:42:14.568Z,81.87
2022-11-20T20:44:57.031Z,82.03
2022-11-20T20:47:27.047Z,81.73
2022-11-20T20:49:57.025Z,81.85
2022-11-20T20:52:29.604Z,82.12
2022-11-20T20:55:02.248Z,82.04
2022-11-20T20:57:32.226Z,81.97
2022-11-20T21:00:02.321Z,81.96
2022-11-20T21:02:32.373Z,82.18
2022-11-20T21:05:02.363Z,81.64
2022-11-20T21:07:32.253Z,81.92
2022-11-20T21:10:04.831Z,81.89
2022-11-20T21:12:34.651Z,82.62
2022-11-20T21:15:04.564Z,83.47
2022-11-20T21:17:36.334Z,83.75
2022-11-20T21:20:27.398Z,83.70
2022-11-20T21:22:57.378Z,83.71
2022-11-20T21:25:29.997Z,83.92
2022-11-20T21:28:04.555Z,84.33
2022-11-20T21:30:35.547Z,84.68
2022-11-20T21:33:05.447Z,85.15
2022-11-20T21:35:37.911Z,85.09
2022-11-20T21:38:07.828Z,85.66
2022-11-20T21:40:40.233Z,85.28
2022-11-20T21:43:13.607Z,85.05
2022-11-20T21:45:43.495Z,84.94
2022-11-20T21:48:13.296Z,85.09
2022-11-20T21:50:43.166Z,85.43
2022-11-20T21:53:13.069Z,84.95
2022-11-20T21:55:45.552Z,84.42
2022-11-20T21:58:17.436Z,84.96
2022-11-20T22:00:50.592Z,84.67
2022-11-20T22:03:23.768Z,84.45
2022-11-20T22:05:59.136Z,83.51
2022-11-20T22:08:29.720Z,83.23
2022-11-20T22:11:05.218Z,83.77
2022-11-20T22:13:47.473Z,84.63
2022-11-20T22:16:17.824Z,84.60
2022-11-20T22:18:53.103Z,84.46
2022-11-20T22:21:24.366Z,84.83
2022-11-20T22:23:54.896Z,85.06
2022-11-20T22:26:33.801Z,84.85
2022-11-20T22:29:07.084Z,84.51
2022-11-20T22:31:40.567Z,84.27
2022-11-20T22:34:16.500Z,84.97
2022-11-20T22:36:49.619Z,85.78
2022-11-20T22:39:23.212Z,85.36
2022-11-20T22:41:55.747Z,85.70
2022-11-20T22:44:25.843Z,85.81
2022-11-20T22:46:58.031Z,85.66
2022-11-20T22:49:27.788Z,85.57
2022-11-20T22:51:57.524Z,85.72
2022-11-20T22:54:27.320Z,86.33
2022-11-20T22:56:59.685Z,85.34
2022-11-20T22:59:29.465Z,85.15
2022-11-20T23:01:59.253Z,85.58
2022-11-20T23:04:29.105Z,85.10
2022-11-20T23:06:59.077Z,85.17
2022-11-20T23:09:28.901Z,84.89
2022-11-20T23:12:01.275Z,84.88
2022-11-20T23:14:31.192Z,84.76
2022-11-20T23:17:01.055Z,84.77
2022-11-20T23:19:30.868Z,84.74
2022-11-20T23:22:00.674Z,84.45
2022-11-20T23:24:30.492Z,83.98
2022-11-20T23:27:02.896Z,84.25
2022-11-20T23:29:32.722Z,83.93
2022-11-20T23:32:02.500Z,84.74
2022-11-20T23:34:32.284Z,84.35
2022-11-20T23:37:02.060Z,84.72
2022-11-20T23:39:31.827Z,84.48
2022-11-20T23:42:04.176Z,84.81
2022-11-20T23:44:33.972Z,84.33
2022-11-20T23:47:07.595Z,84.66
2022-11-20T23:49:37.348Z,84.38
2022-11-20T23:52:07.453Z,83.93
2022-11-20T23:54:37.232Z,83.70
2022-11-20T23:57:09.673Z,83.84
2022-11-20T23:59:39.431Z,83.79
